sensor_id;sensor_type;location;lat;lon;timestamp;P1;durP1;ratioP1;P2;durP2;ratioP2
76813;SDS011;65767;49.360;8.266;2023-01-16T00:00:44;5.10;;;1.90;;
76813;SDS011;65767;49.360;8.266;2023-01-16T00:01:44;5.17;;;1.80;;
76813;SDS011;65767;49.360;8.266;2023-01-16T00:02:45;5.00;;;1.80;;
76813;SDS011;65767;49.360;8.266;2023-01-16T00:03:45;2.90;;;1.53;;
76813;SDS011;65767;49.360;8.266;2023-01-16T00:04:46;9.77;;;2.40;;
76813;SDS011;65767;49.360;8.266;2023-01-16T00:05:46;8.00;;;2.13;;
76813;SDS011;65767;49.360;8.266;2023-01-16T00:06:47;6.57;;;2.00;;
76813;SDS011;65767;49.360;8.266;2023-01-16T00:07:47;5.07;;;2.00;;
76813;SDS011;65767;49.360;8.266;2023-01-16T00:08:47;5.73;;;2.00;;
76813;SDS011;65767;49.360;8.266;2023-01-16T00:09:49;4.03;;;1.98;;
76813;SDS011;65767;49.360;8.266;2023-01-16T00:10:49;6.50;;;2.00;;
76813;SDS011;65767;49.360;8.266;2023-01-16T00:11:49;3.47;;;1.70;;
76813;SDS011;65767;49.360;8.266;2023-01-16T00:12:50;5.17;;;1.70;;
76813;SDS011;65767;49.360;8.266;2023-01-16T00:13:50;6.77;;;2.10;;
76813;SDS011;65767;49.360;8.266;2023-01-16T00:14:50;5.57;;;1.97;;
76813;SDS011;65767;49.360;8.266;2023-01-16T00:15:51;7.67;;;2.00;;
76813;SDS011;65767;49.360;8.266;2023-01-16T00:16:51;5.37;;;1.73;;
76813;SDS011;65767;49.360;8.266;2023-01-16T00:17:52;8.17;;;2.57;;
76813;SDS011;65767;49.360;8.266;2023-01-16T00:18:52;5.50;;;2.10;;
76813;SDS011;65767;49.360;8.266;2023-01-16T00:19:52;4.37;;;1.90;;
76813;SDS011;65767;49.360;8.266;2023-01-16T00:20:53;4.73;;;1.87;;
76813;SDS011;65767;49.360;8.266;2023-01-16T00:21:53;8.80;;;2.20;;
76813;SDS011;65767;49.360;8.266;2023-01-16T00:22:53;6.57;;;1.90;;
76813;SDS011;65767;49.360;8.266;2023-01-16T00:23:54;6.10;;;2.20;;
76813;SDS011;65767;49.360;8.266;2023-01-16T00:24:55;5.90;;;1.88;;
76813;SDS011;65767;49.360;8.266;2023-01-16T00:25:55;4.23;;;1.67;;
76813;SDS011;65767;49.360;8.266;2023-01-16T00:26:56;2.47;;;1.83;;
76813;SDS011;65767;49.360;8.266;2023-01-16T00:27:56;5.53;;;2.13;;
76813;SDS011;65767;49.360;8.266;2023-01-16T00:28:56;4.40;;;1.90;;
76813;SDS011;65767;49.360;8.266;2023-01-16T00:29:57;3.37;;;1.63;;
76813;SDS011;65767;49.360;8.266;2023-01-16T00:30:57;6.40;;;1.87;;
76813;SDS011;65767;49.360;8.266;2023-01-16T00:31:58;5.10;;;1.93;;
76813;SDS011;65767;49.360;8.266;2023-01-16T00:32:58;5.57;;;2.10;;
76813;SDS011;65767;49.360;8.266;2023-01-16T00:33:58;5.00;;;1.80;;
76813;SDS011;65767;49.360;8.266;2023-01-16T00:34:59;6.13;;;1.97;;
76813;SDS011;65767;49.360;8.266;2023-01-16T00:35:59;7.40;;;2.70;;
76813;SDS011;65767;49.360;8.266;2023-01-16T00:37:00;5.90;;;1.80;;
76813;SDS011;65767;49.360;8.266;2023-01-16T00:38:00;3.50;;;1.80;;
76813;SDS011;65767;49.360;8.266;2023-01-16T00:39:01;4.40;;;1.90;;
76813;SDS011;65767;49.360;8.266;2023-01-16T00:40:01;6.17;;;1.97;;
76813;SDS011;65767;49.360;8.266;2023-01-16T00:41:01;5.00;;;2.23;;
76813;SDS011;65767;49.360;8.266;2023-01-16T00:42:02;3.83;;;2.13;;
76813;SDS011;65767;49.360;8.266;2023-01-16T00:43:02;3.90;;;1.57;;
76813;SDS011;65767;49.360;8.266;2023-01-16T00:44:02;5.33;;;1.60;;
76813;SDS011;65767;49.360;8.266;2023-01-16T00:45:03;4.70;;;1.77;;
76813;SDS011;65767;49.360;8.266;2023-01-16T00:46:03;6.63;;;1.60;;
76813;SDS011;65767;49.360;8.266;2023-01-16T00:47:04;7.37;;;1.73;;
76813;SDS011;65767;49.360;8.266;2023-01-16T00:48:05;5.00;;;1.85;;
76813;SDS011;65767;49.360;8.266;2023-01-16T00:49:06;5.30;;;1.50;;
76813;SDS011;65767;49.360;8.266;2023-01-16T00:50:06;6.67;;;2.37;;
76813;SDS011;65767;49.360;8.266;2023-01-16T00:51:07;5.33;;;1.60;;
76813;SDS011;65767;49.360;8.266;2023-01-16T00:52:07;6.93;;;1.87;;
76813;SDS011;65767;49.360;8.266;2023-01-16T00:53:07;5.70;;;1.83;;
76813;SDS011;65767;49.360;8.266;2023-01-16T00:54:08;7.33;;;2.37;;
76813;SDS011;65767;49.360;8.266;2023-01-16T00:55:08;2.37;;;1.37;;
76813;SDS011;65767;49.360;8.266;2023-01-16T00:56:08;4.40;;;1.70;;
76813;SDS011;65767;49.360;8.266;2023-01-16T00:57:09;3.83;;;1.47;;
76813;SDS011;65767;49.360;8.266;2023-01-16T00:58:09;5.20;;;1.77;;
76813;SDS011;65767;49.360;8.266;2023-01-16T00:59:10;3.67;;;2.03;;
76813;SDS011;65767;49.360;8.266;2023-01-16T01:00:10;4.40;;;1.90;;
76813;SDS011;65767;49.360;8.266;2023-01-16T01:01:11;6.30;;;1.73;;
76813;SDS011;65767;49.360;8.266;2023-01-16T01:02:11;5.53;;;2.03;;
76813;SDS011;65767;49.360;8.266;2023-01-16T01:03:11;3.50;;;1.43;;
76813;SDS011;65767;49.360;8.266;2023-01-16T01:04:12;3.30;;;1.97;;
76813;SDS011;65767;49.360;8.266;2023-01-16T01:05:12;3.27;;;1.63;;
76813;SDS011;65767;49.360;8.266;2023-01-16T01:06:13;4.13;;;1.80;;
76813;SDS011;65767;49.360;8.266;2023-01-16T01:07:13;3.90;;;1.40;;
76813;SDS011;65767;49.360;8.266;2023-01-16T01:08:13;3.87;;;1.70;;
76813;SDS011;65767;49.360;8.266;2023-01-16T01:09:14;7.10;;;2.03;;
76813;SDS011;65767;49.360;8.266;2023-01-16T01:10:14;5.63;;;2.07;;
76813;SDS011;65767;49.360;8.266;2023-01-16T01:11:15;4.13;;;1.73;;
76813;SDS011;65767;49.360;8.266;2023-01-16T01:12:15;6.03;;;2.00;;
76813;SDS011;65767;49.360;8.266;2023-01-16T01:13:15;6.10;;;1.83;;
76813;SDS011;65767;49.360;8.266;2023-01-16T01:14:16;2.60;;;1.33;;
76813;SDS011;65767;49.360;8.266;2023-01-16T01:15:16;3.47;;;1.63;;
76813;SDS011;65767;49.360;8.266;2023-01-16T01:16:16;4.43;;;2.00;;
76813;SDS011;65767;49.360;8.266;2023-01-16T01:17:17;4.27;;;1.80;;
76813;SDS011;65767;49.360;8.266;2023-01-16T01:18:17;5.60;;;2.17;;
76813;SDS011;65767;49.360;8.266;2023-01-16T01:19:18;4.33;;;2.07;;
76813;SDS011;65767;49.360;8.266;2023-01-16T01:20:18;2.03;;;1.43;;
76813;SDS011;65767;49.360;8.266;2023-01-16T01:21:19;2.87;;;1.50;;
76813;SDS011;65767;49.360;8.266;2023-01-16T01:22:19;8.77;;;2.10;;
76813;SDS011;65767;49.360;8.266;2023-01-16T01:23:19;7.47;;;2.00;;
76813;SDS011;65767;49.360;8.266;2023-01-16T01:24:20;5.13;;;1.50;;
76813;SDS011;65767;49.360;8.266;2023-01-16T01:25:20;3.83;;;1.77;;
76813;SDS011;65767;49.360;8.266;2023-01-16T01:26:20;5.30;;;1.90;;
76813;SDS011;65767;49.360;8.266;2023-01-16T01:27:21;4.93;;;1.73;;
76813;SDS011;65767;49.360;8.266;2023-01-16T01:28:21;3.67;;;1.57;;
76813;SDS011;65767;49.360;8.266;2023-01-16T01:29:22;5.20;;;1.40;;
76813;SDS011;65767;49.360;8.266;2023-01-16T01:30:22;7.93;;;1.80;;
76813;SDS011;65767;49.360;8.266;2023-01-16T01:31:22;4.17;;;1.50;;
76813;SDS011;65767;49.360;8.266;2023-01-16T01:32:23;3.80;;;1.63;;
76813;SDS011;65767;49.360;8.266;2023-01-16T01:33:23;4.30;;;1.63;;
76813;SDS011;65767;49.360;8.266;2023-01-16T01:34:24;6.00;;;1.93;;
76813;SDS011;65767;49.360;8.266;2023-01-16T01:35:24;4.47;;;1.80;;
76813;SDS011;65767;49.360;8.266;2023-01-16T01:36:24;2.90;;;1.17;;
76813;SDS011;65767;49.360;8.266;2023-01-16T01:37:25;6.47;;;1.87;;
76813;SDS011;65767;49.360;8.266;2023-01-16T01:38:25;2.90;;;1.60;;
76813;SDS011;65767;49.360;8.266;2023-01-16T01:39:26;5.40;;;2.00;;
76813;SDS011;65767;49.360;8.266;2023-01-16T01:40:26;4.73;;;1.57;;
76813;SDS011;65767;49.360;8.266;2023-01-16T01:41:26;4.83;;;1.70;;
76813;SDS011;65767;49.360;8.266;2023-01-16T01:42:27;6.03;;;1.33;;
76813;SDS011;65767;49.360;8.266;2023-01-16T01:43:44;4.03;;;1.70;;
76813;SDS011;65767;49.360;8.266;2023-01-16T01:45:46;4.37;;;1.63;;
76813;SDS011;65767;49.360;8.266;2023-01-16T01:46:48;3.58;;;1.75;;
76813;SDS011;65767;49.360;8.266;2023-01-16T01:49:04;2.67;;;1.42;;
76813;SDS011;65767;49.360;8.266;2023-01-16T01:50:13;4.47;;;1.85;;
76813;SDS011;65767;49.360;8.266;2023-01-16T01:51:19;4.63;;;2.17;;
76813;SDS011;65767;49.360;8.266;2023-01-16T01:52:20;5.45;;;1.75;;
76813;SDS011;65767;49.360;8.266;2023-01-16T01:54:26;5.28;;;1.70;;
76813;SDS011;65767;49.360;8.266;2023-01-16T01:55:28;4.95;;;1.77;;
76813;SDS011;65767;49.360;8.266;2023-01-16T01:56:30;6.33;;;1.93;;
76813;SDS011;65767;49.360;8.266;2023-01-16T01:57:36;4.38;;;1.50;;
76813;SDS011;65767;49.360;8.266;2023-01-16T01:58:38;3.55;;;1.75;;
76813;SDS011;65767;49.360;8.266;2023-01-16T02:00:05;5.47;;;1.83;;
76813;SDS011;65767;49.360;8.266;2023-01-16T02:01:11;6.25;;;1.73;;
76813;SDS011;65767;49.360;8.266;2023-01-16T02:02:13;4.70;;;1.67;;
76813;SDS011;65767;49.360;8.266;2023-01-16T02:03:15;5.63;;;1.80;;
76813;SDS011;65767;49.360;8.266;2023-01-16T02:04:17;4.28;;;1.80;;
76813;SDS011;65767;49.360;8.266;2023-01-16T02:05:23;5.43;;;1.80;;
76813;SDS011;65767;49.360;8.266;2023-01-16T02:06:27;4.20;;;2.00;;
76813;SDS011;65767;49.360;8.266;2023-01-16T02:07:28;6.55;;;1.88;;
76813;SDS011;65767;49.360;8.266;2023-01-16T02:08:29;4.83;;;1.47;;
76813;SDS011;65767;49.360;8.266;2023-01-16T02:09:30;5.22;;;2.00;;
76813;SDS011;65767;49.360;8.266;2023-01-16T02:10:41;4.50;;;1.60;;
76813;SDS011;65767;49.360;8.266;2023-01-16T02:12:25;2.88;;;1.52;;
76813;SDS011;65767;49.360;8.266;2023-01-16T02:13:07;4.10;;;1.92;;
76813;SDS011;65767;49.360;8.266;2023-01-16T02:14:08;6.90;;;2.20;;
76813;SDS011;65767;49.360;8.266;2023-01-16T02:15:09;10.20;;;1.70;;
76813;SDS011;65767;49.360;8.266;2023-01-16T02:16:09;7.73;;;2.30;;
76813;SDS011;65767;49.360;8.266;2023-01-16T02:17:33;5.30;;;1.75;;
76813;SDS011;65767;49.360;8.266;2023-01-16T02:18:52;5.53;;;1.55;;
76813;SDS011;65767;49.360;8.266;2023-01-16T02:20:16;4.53;;;1.50;;
76813;SDS011;65767;49.360;8.266;2023-01-16T02:29:25;2.88;;;1.80;;
76813;SDS011;65767;49.360;8.266;2023-01-16T02:33:10;4.43;;;1.48;;
76813;SDS011;65767;49.360;8.266;2023-01-16T02:37:57;4.65;;;1.40;;
76813;SDS011;65767;49.360;8.266;2023-01-16T02:44:37;5.40;;;1.90;;
76813;SDS011;65767;49.360;8.266;2023-01-16T02:45:43;6.55;;;1.70;;
76813;SDS011;65767;49.360;8.266;2023-01-16T02:54:36;3.10;;;1.33;;
76813;SDS011;65767;49.360;8.266;2023-01-16T02:55:42;5.20;;;1.58;;
76813;SDS011;65767;49.360;8.266;2023-01-16T02:56:48;6.38;;;2.05;;
76813;SDS011;65767;49.360;8.266;2023-01-16T02:57:55;3.45;;;1.33;;
76813;SDS011;65767;49.360;8.266;2023-01-16T02:58:57;4.07;;;1.30;;
76813;SDS011;65767;49.360;8.266;2023-01-16T02:59:58;6.03;;;1.50;;
76813;SDS011;65767;49.360;8.266;2023-01-16T03:00:59;4.38;;;1.27;;
76813;SDS011;65767;49.360;8.266;2023-01-16T03:02:00;5.53;;;1.63;;
76813;SDS011;65767;49.360;8.266;2023-01-16T03:03:00;5.40;;;1.50;;
76813;SDS011;65767;49.360;8.266;2023-01-16T03:04:04;3.17;;;1.52;;
76813;SDS011;65767;49.360;8.266;2023-01-16T03:05:05;4.38;;;1.55;;
76813;SDS011;65767;49.360;8.266;2023-01-16T03:06:13;2.90;;;1.67;;
76813;SDS011;65767;49.360;8.266;2023-01-16T03:08:29;3.75;;;1.70;;
76813;SDS011;65767;49.360;8.266;2023-01-16T03:09:38;5.10;;;1.63;;
76813;SDS011;65767;49.360;8.266;2023-01-16T03:10:47;7.90;;;1.80;;
76813;SDS011;65767;49.360;8.266;2023-01-16T03:15:14;3.90;;;1.42;;
76813;SDS011;65767;49.360;8.266;2023-01-16T03:16:34;6.15;;;1.95;;
76813;SDS011;65767;49.360;8.266;2023-01-16T03:17:43;6.68;;;1.52;;
76813;SDS011;65767;49.360;8.266;2023-01-16T03:20:08;2.53;;;1.10;;
76813;SDS011;65767;49.360;8.266;2023-01-16T03:22:33;4.25;;;1.20;;
76813;SDS011;65767;49.360;8.266;2023-01-16T03:26:45;6.63;;;1.67;;
76813;SDS011;65767;49.360;8.266;2023-01-16T03:27:57;5.18;;;1.75;;
76813;SDS011;65767;49.360;8.266;2023-01-16T03:31:17;5.10;;;1.73;;
76813;SDS011;65767;49.360;8.266;2023-01-16T03:32:29;5.20;;;1.70;;
76813;SDS011;65767;49.360;8.266;2023-01-16T03:33:39;4.13;;;1.40;;
76813;SDS011;65767;49.360;8.266;2023-01-16T03:34:46;2.17;;;1.48;;
76813;SDS011;65767;49.360;8.266;2023-01-16T03:35:50;3.30;;;1.30;;
76813;SDS011;65767;49.360;8.266;2023-01-16T03:36:53;4.75;;;1.60;;
76813;SDS011;65767;49.360;8.266;2023-01-16T03:37:54;6.53;;;1.58;;
76813;SDS011;65767;49.360;8.266;2023-01-16T03:38:55;3.95;;;1.45;;
76813;SDS011;65767;49.360;8.266;2023-01-16T03:39:58;3.75;;;1.50;;
76813;SDS011;65767;49.360;8.266;2023-01-16T03:40:59;5.57;;;1.75;;
76813;SDS011;65767;49.360;8.266;2023-01-16T03:42:05;7.85;;;1.40;;
76813;SDS011;65767;49.360;8.266;2023-01-16T03:44:08;5.60;;;1.57;;
76813;SDS011;65767;49.360;8.266;2023-01-16T03:45:16;3.70;;;1.70;;
76813;SDS011;65767;49.360;8.266;2023-01-16T03:46:23;4.03;;;1.40;;
76813;SDS011;65767;49.360;8.266;2023-01-16T03:47:34;5.03;;;1.40;;
76813;SDS011;65767;49.360;8.266;2023-01-16T03:49:38;3.57;;;1.37;;
76813;SDS011;65767;49.360;8.266;2023-01-16T03:50:42;4.28;;;1.15;;
76813;SDS011;65767;49.360;8.266;2023-01-16T03:51:45;3.03;;;1.50;;
76813;SDS011;65767;49.360;8.266;2023-01-16T03:52:48;4.28;;;1.92;;
76813;SDS011;65767;49.360;8.266;2023-01-16T03:55:06;3.28;;;1.50;;
76813;SDS011;65767;49.360;8.266;2023-01-16T03:56:19;3.25;;;1.33;;
76813;SDS011;65767;49.360;8.266;2023-01-16T03:58:25;4.57;;;1.60;;
76813;SDS011;65767;49.360;8.266;2023-01-16T03:59:27;3.13;;;1.60;;
76813;SDS011;65767;49.360;8.266;2023-01-16T04:00:29;4.47;;;1.40;;
76813;SDS011;65767;49.360;8.266;2023-01-16T04:01:45;3.33;;;1.50;;
76813;SDS011;65767;49.360;8.266;2023-01-16T04:03:54;4.73;;;1.13;;
76813;SDS011;65767;49.360;8.266;2023-01-16T04:05:00;2.78;;;1.23;;
76813;SDS011;65767;49.360;8.266;2023-01-16T04:08:57;3.92;;;1.85;;
76813;SDS011;65767;49.360;8.266;2023-01-16T04:10:09;5.55;;;1.50;;
76813;SDS011;65767;49.360;8.266;2023-01-16T04:11:10;7.78;;;1.30;;
76813;SDS011;65767;49.360;8.266;2023-01-16T04:12:12;4.43;;;1.45;;
76813;SDS011;65767;49.360;8.266;2023-01-16T04:13:22;5.13;;;1.33;;
76813;SDS011;65767;49.360;8.266;2023-01-16T04:14:24;4.97;;;1.42;;
76813;SDS011;65767;49.360;8.266;2023-01-16T04:15:26;5.45;;;1.80;;
76813;SDS011;65767;49.360;8.266;2023-01-16T04:16:27;3.35;;;1.40;;
76813;SDS011;65767;49.360;8.266;2023-01-16T04:17:29;3.30;;;1.13;;
76813;SDS011;65767;49.360;8.266;2023-01-16T04:18:33;5.53;;;1.57;;
76813;SDS011;65767;49.360;8.266;2023-01-16T04:19:34;3.53;;;1.45;;
76813;SDS011;65767;49.360;8.266;2023-01-16T04:20:35;4.80;;;1.30;;
76813;SDS011;65767;49.360;8.266;2023-01-16T04:21:36;5.35;;;1.60;;
76813;SDS011;65767;49.360;8.266;2023-01-16T04:22:36;3.17;;;1.70;;
76813;SDS011;65767;49.360;8.266;2023-01-16T04:23:37;4.03;;;1.30;;
76813;SDS011;65767;49.360;8.266;2023-01-16T04:24:37;7.50;;;1.70;;
76813;SDS011;65767;49.360;8.266;2023-01-16T04:25:37;5.93;;;1.20;;
76813;SDS011;65767;49.360;8.266;2023-01-16T04:26:38;4.87;;;1.23;;
76813;SDS011;65767;49.360;8.266;2023-01-16T04:27:38;6.20;;;1.80;;
76813;SDS011;65767;49.360;8.266;2023-01-16T04:28:38;3.90;;;1.20;;
76813;SDS011;65767;49.360;8.266;2023-01-16T04:29:39;2.90;;;1.50;;
76813;SDS011;65767;49.360;8.266;2023-01-16T04:30:39;4.57;;;1.77;;
76813;SDS011;65767;49.360;8.266;2023-01-16T04:31:39;6.57;;;1.73;;
76813;SDS011;65767;49.360;8.266;2023-01-16T04:32:40;3.27;;;1.20;;
76813;SDS011;65767;49.360;8.266;2023-01-16T04:33:40;3.97;;;1.53;;
76813;SDS011;65767;49.360;8.266;2023-01-16T04:34:40;2.93;;;1.30;;
76813;SDS011;65767;49.360;8.266;2023-01-16T04:35:41;3.53;;;1.67;;
76813;SDS011;65767;49.360;8.266;2023-01-16T04:36:41;7.57;;;1.60;;
76813;SDS011;65767;49.360;8.266;2023-01-16T04:37:41;10.77;;;1.60;;
76813;SDS011;65767;49.360;8.266;2023-01-16T04:38:42;6.00;;;1.70;;
76813;SDS011;65767;49.360;8.266;2023-01-16T04:39:42;7.17;;;1.70;;
76813;SDS011;65767;49.360;8.266;2023-01-16T04:40:43;19.83;;;8.37;;
76813;SDS011;65767;49.360;8.266;2023-01-16T04:41:43;63.93;;;25.03;;
76813;SDS011;65767;49.360;8.266;2023-01-16T04:42:47;66.63;;;26.67;;
76813;SDS011;65767;49.360;8.266;2023-01-16T04:43:47;43.77;;;18.80;;
76813;SDS011;65767;49.360;8.266;2023-01-16T04:44:48;17.20;;;7.23;;
76813;SDS011;65767;49.360;8.266;2023-01-16T04:45:48;9.93;;;4.23;;
76813;SDS011;65767;49.360;8.266;2023-01-16T04:46:48;6.63;;;2.37;;
76813;SDS011;65767;49.360;8.266;2023-01-16T04:47:49;7.20;;;1.93;;
76813;SDS011;65767;49.360;8.266;2023-01-16T04:48:50;4.32;;;2.00;;
76813;SDS011;65767;49.360;8.266;2023-01-16T04:49:50;5.30;;;1.70;;
76813;SDS011;65767;49.360;8.266;2023-01-16T04:50:50;4.10;;;1.70;;
76813;SDS011;65767;49.360;8.266;2023-01-16T04:51:51;2.60;;;1.40;;
76813;SDS011;65767;49.360;8.266;2023-01-16T04:52:51;3.90;;;1.40;;
76813;SDS011;65767;49.360;8.266;2023-01-16T04:53:52;6.07;;;1.47;;
76813;SDS011;65767;49.360;8.266;2023-01-16T04:54:52;3.80;;;1.60;;
76813;SDS011;65767;49.360;8.266;2023-01-16T04:55:52;6.40;;;1.60;;
76813;SDS011;65767;49.360;8.266;2023-01-16T04:56:53;4.57;;;1.43;;
76813;SDS011;65767;49.360;8.266;2023-01-16T04:57:53;3.43;;;1.40;;
76813;SDS011;65767;49.360;8.266;2023-01-16T04:58:53;5.30;;;2.13;;
76813;SDS011;65767;49.360;8.266;2023-01-16T04:59:54;3.87;;;1.30;;
76813;SDS011;65767;49.360;8.266;2023-01-16T05:00:54;5.73;;;1.50;;
76813;SDS011;65767;49.360;8.266;2023-01-16T05:01:54;5.73;;;1.50;;
76813;SDS011;65767;49.360;8.266;2023-01-16T05:02:55;3.60;;;1.27;;
76813;SDS011;65767;49.360;8.266;2023-01-16T05:03:55;4.73;;;1.37;;
76813;SDS011;65767;49.360;8.266;2023-01-16T05:04:55;4.13;;;1.83;;
76813;SDS011;65767;49.360;8.266;2023-01-16T05:05:56;6.53;;;1.63;;
76813;SDS011;65767;49.360;8.266;2023-01-16T05:06:56;4.00;;;1.60;;
76813;SDS011;65767;49.360;8.266;2023-01-16T05:07:57;4.97;;;1.50;;
76813;SDS011;65767;49.360;8.266;2023-01-16T05:09:15;8.13;;;1.60;;
76813;SDS011;65767;49.360;8.266;2023-01-16T05:10:16;5.60;;;1.43;;
76813;SDS011;65767;49.360;8.266;2023-01-16T05:11:16;6.13;;;1.40;;
76813;SDS011;65767;49.360;8.266;2023-01-16T05:12:16;6.77;;;1.77;;
76813;SDS011;65767;49.360;8.266;2023-01-16T05:13:17;5.00;;;1.60;;
76813;SDS011;65767;49.360;8.266;2023-01-16T05:14:17;4.20;;;1.43;;
76813;SDS011;65767;49.360;8.266;2023-01-16T05:15:17;4.73;;;1.63;;
76813;SDS011;65767;49.360;8.266;2023-01-16T05:16:18;8.07;;;1.63;;
76813;SDS011;65767;49.360;8.266;2023-01-16T05:17:18;6.77;;;1.23;;
76813;SDS011;65767;49.360;8.266;2023-01-16T05:18:23;6.13;;;1.58;;
76813;SDS011;65767;49.360;8.266;2023-01-16T05:19:23;3.90;;;1.57;;
76813;SDS011;65767;49.360;8.266;2023-01-16T05:20:24;4.43;;;1.67;;
76813;SDS011;65767;49.360;8.266;2023-01-16T05:21:24;2.03;;;0.93;;
76813;SDS011;65767;49.360;8.266;2023-01-16T05:22:24;4.17;;;1.30;;
76813;SDS011;65767;49.360;8.266;2023-01-16T05:23:25;6.83;;;1.43;;
76813;SDS011;65767;49.360;8.266;2023-01-16T05:24:25;5.10;;;1.53;;
76813;SDS011;65767;49.360;8.266;2023-01-16T05:25:25;5.63;;;1.40;;
76813;SDS011;65767;49.360;8.266;2023-01-16T05:26:26;3.50;;;1.47;;
76813;SDS011;65767;49.360;8.266;2023-01-16T05:27:26;6.10;;;1.37;;
76813;SDS011;65767;49.360;8.266;2023-01-16T05:28:27;5.30;;;1.07;;
76813;SDS011;65767;49.360;8.266;2023-01-16T05:29:27;3.63;;;1.20;;
76813;SDS011;65767;49.360;8.266;2023-01-16T05:30:28;7.20;;;1.60;;
76813;SDS011;65767;49.360;8.266;2023-01-16T05:31:28;4.50;;;1.47;;
76813;SDS011;65767;49.360;8.266;2023-01-16T05:32:28;4.70;;;1.23;;
76813;SDS011;65767;49.360;8.266;2023-01-16T05:33:29;7.17;;;1.40;;
76813;SDS011;65767;49.360;8.266;2023-01-16T05:34:29;7.43;;;1.40;;
76813;SDS011;65767;49.360;8.266;2023-01-16T05:35:30;4.07;;;1.27;;
76813;SDS011;65767;49.360;8.266;2023-01-16T05:36:30;5.07;;;1.40;;
76813;SDS011;65767;49.360;8.266;2023-01-16T05:37:30;3.87;;;1.63;;
76813;SDS011;65767;49.360;8.266;2023-01-16T05:38:31;8.57;;;1.97;;
76813;SDS011;65767;49.360;8.266;2023-01-16T05:39:31;3.03;;;1.33;;
76813;SDS011;65767;49.360;8.266;2023-01-16T05:40:31;7.03;;;1.53;;
76813;SDS011;65767;49.360;8.266;2023-01-16T05:41:32;7.37;;;1.60;;
76813;SDS011;65767;49.360;8.266;2023-01-16T05:42:32;6.37;;;1.60;;
76813;SDS011;65767;49.360;8.266;2023-01-16T05:43:32;4.00;;;1.50;;
76813;SDS011;65767;49.360;8.266;2023-01-16T05:44:33;4.33;;;1.67;;
76813;SDS011;65767;49.360;8.266;2023-01-16T05:45:33;4.93;;;1.63;;
76813;SDS011;65767;49.360;8.266;2023-01-16T05:46:33;6.27;;;1.57;;
76813;SDS011;65767;49.360;8.266;2023-01-16T05:47:34;7.07;;;1.70;;
76813;SDS011;65767;49.360;8.266;2023-01-16T05:48:34;3.07;;;1.37;;
76813;SDS011;65767;49.360;8.266;2023-01-16T05:49:36;3.90;;;1.30;;
76813;SDS011;65767;49.360;8.266;2023-01-16T05:50:36;4.87;;;1.70;;
76813;SDS011;65767;49.360;8.266;2023-01-16T05:51:37;6.47;;;1.67;;
76813;SDS011;65767;49.360;8.266;2023-01-16T05:52:37;4.40;;;1.60;;
76813;SDS011;65767;49.360;8.266;2023-01-16T05:53:38;5.57;;;1.60;;
76813;SDS011;65767;49.360;8.266;2023-01-16T05:54:38;3.17;;;1.27;;
76813;SDS011;65767;49.360;8.266;2023-01-16T05:55:42;4.70;;;1.33;;
76813;SDS011;65767;49.360;8.266;2023-01-16T05:56:43;4.80;;;1.70;;
76813;SDS011;65767;49.360;8.266;2023-01-16T05:57:43;7.47;;;1.60;;
76813;SDS011;65767;49.360;8.266;2023-01-16T05:58:44;3.90;;;1.30;;
76813;SDS011;65767;49.360;8.266;2023-01-16T05:59:47;3.40;;;1.30;;
76813;SDS011;65767;49.360;8.266;2023-01-16T06:00:47;3.83;;;1.58;;
76813;SDS011;65767;49.360;8.266;2023-01-16T06:01:48;5.73;;;1.57;;
76813;SDS011;65767;49.360;8.266;2023-01-16T06:02:50;7.28;;;1.95;;
76813;SDS011;65767;49.360;8.266;2023-01-16T06:03:50;5.37;;;1.47;;
76813;SDS011;65767;49.360;8.266;2023-01-16T06:04:50;6.67;;;1.63;;
76813;SDS011;65767;49.360;8.266;2023-01-16T06:05:51;3.42;;;1.20;;
76813;SDS011;65767;49.360;8.266;2023-01-16T06:06:52;5.53;;;2.23;;
76813;SDS011;65767;49.360;8.266;2023-01-16T06:07:56;5.00;;;1.25;;
76813;SDS011;65767;49.360;8.266;2023-01-16T06:08:56;5.20;;;1.42;;
76813;SDS011;65767;49.360;8.266;2023-01-16T06:09:57;4.27;;;1.47;;
76813;SDS011;65767;49.360;8.266;2023-01-16T06:10:57;5.80;;;1.70;;
76813;SDS011;65767;49.360;8.266;2023-01-16T06:11:57;5.50;;;1.50;;
76813;SDS011;65767;49.360;8.266;2023-01-16T06:12:59;3.13;;;0.93;;
76813;SDS011;65767;49.360;8.266;2023-01-16T06:13:59;3.83;;;1.58;;
76813;SDS011;65767;49.360;8.266;2023-01-16T06:15:03;2.53;;;1.40;;
76813;SDS011;65767;49.360;8.266;2023-01-16T06:16:04;5.10;;;1.47;;
76813;SDS011;65767;49.360;8.266;2023-01-16T06:17:04;4.27;;;1.27;;
76813;SDS011;65767;49.360;8.266;2023-01-16T06:18:04;5.27;;;1.33;;
76813;SDS011;65767;49.360;8.266;2023-01-16T06:19:05;7.37;;;1.47;;
76813;SDS011;65767;49.360;8.266;2023-01-16T06:20:05;4.87;;;1.50;;
76813;SDS011;65767;49.360;8.266;2023-01-16T06:21:06;2.23;;;1.23;;
76813;SDS011;65767;49.360;8.266;2023-01-16T06:22:06;5.23;;;1.67;;
76813;SDS011;65767;49.360;8.266;2023-01-16T06:23:07;6.63;;;1.50;;
76813;SDS011;65767;49.360;8.266;2023-01-16T06:24:08;3.95;;;1.48;;
76813;SDS011;65767;49.360;8.266;2023-01-16T06:25:09;8.27;;;1.30;;
76813;SDS011;65767;49.360;8.266;2023-01-16T06:26:09;5.70;;;1.30;;
76813;SDS011;65767;49.360;8.266;2023-01-16T06:27:09;7.90;;;1.90;;
76813;SDS011;65767;49.360;8.266;2023-01-16T06:28:10;4.27;;;1.47;;
76813;SDS011;65767;49.360;8.266;2023-01-16T06:29:10;3.87;;;2.33;;
76813;SDS011;65767;49.360;8.266;2023-01-16T06:30:11;5.17;;;1.80;;
76813;SDS011;65767;49.360;8.266;2023-01-16T06:31:12;4.17;;;1.57;;
76813;SDS011;65767;49.360;8.266;2023-01-16T06:32:12;3.47;;;1.47;;
76813;SDS011;65767;49.360;8.266;2023-01-16T06:33:12;6.80;;;1.83;;
76813;SDS011;65767;49.360;8.266;2023-01-16T06:34:13;5.27;;;2.20;;
76813;SDS011;65767;49.360;8.266;2023-01-16T06:35:13;5.17;;;1.97;;
76813;SDS011;65767;49.360;8.266;2023-01-16T06:36:13;6.07;;;1.70;;
76813;SDS011;65767;49.360;8.266;2023-01-16T06:37:14;4.23;;;1.80;;
76813;SDS011;65767;49.360;8.266;2023-01-16T06:38:14;5.97;;;2.07;;
76813;SDS011;65767;49.360;8.266;2023-01-16T06:39:15;5.07;;;2.00;;
76813;SDS011;65767;49.360;8.266;2023-01-16T06:40:15;7.63;;;1.93;;
76813;SDS011;65767;49.360;8.266;2023-01-16T06:41:16;5.77;;;2.33;;
76813;SDS011;65767;49.360;8.266;2023-01-16T06:42:16;7.10;;;2.10;;
76813;SDS011;65767;49.360;8.266;2023-01-16T06:43:17;3.70;;;2.37;;
76813;SDS011;65767;49.360;8.266;2023-01-16T06:44:17;6.60;;;2.33;;
76813;SDS011;65767;49.360;8.266;2023-01-16T06:45:17;3.53;;;2.10;;
76813;SDS011;65767;49.360;8.266;2023-01-16T06:46:21;4.57;;;2.15;;
76813;SDS011;65767;49.360;8.266;2023-01-16T06:47:22;5.80;;;2.00;;
76813;SDS011;65767;49.360;8.266;2023-01-16T06:48:22;5.13;;;2.00;;
76813;SDS011;65767;49.360;8.266;2023-01-16T06:49:23;6.77;;;2.53;;
76813;SDS011;65767;49.360;8.266;2023-01-16T06:50:23;4.93;;;2.50;;
76813;SDS011;65767;49.360;8.266;2023-01-16T06:51:23;5.03;;;2.40;;
76813;SDS011;65767;49.360;8.266;2023-01-16T06:52:24;3.40;;;2.27;;
76813;SDS011;65767;49.360;8.266;2023-01-16T06:53:24;5.13;;;2.37;;
76813;SDS011;65767;49.360;8.266;2023-01-16T06:54:25;5.43;;;2.30;;
76813;SDS011;65767;49.360;8.266;2023-01-16T06:55:25;4.07;;;1.43;;
76813;SDS011;65767;49.360;8.266;2023-01-16T06:56:27;6.03;;;1.52;;
76813;SDS011;65767;49.360;8.266;2023-01-16T06:57:29;2.08;;;1.30;;
76813;SDS011;65767;49.360;8.266;2023-01-16T06:58:30;4.75;;;1.33;;
76813;SDS011;65767;49.360;8.266;2023-01-16T06:59:30;4.53;;;1.40;;
76813;SDS011;65767;49.360;8.266;2023-01-16T07:00:31;7.83;;;1.60;;
76813;SDS011;65767;49.360;8.266;2023-01-16T07:01:32;4.43;;;1.47;;
76813;SDS011;65767;49.360;8.266;2023-01-16T07:02:32;4.50;;;1.57;;
76813;SDS011;65767;49.360;8.266;2023-01-16T07:03:33;4.07;;;1.70;;
76813;SDS011;65767;49.360;8.266;2023-01-16T07:04:33;3.27;;;1.37;;
76813;SDS011;65767;49.360;8.266;2023-01-16T07:05:33;4.03;;;1.80;;